Bookmark and Share
Track history (hours):
 

Sandra Hugh

More information available from US FCC via Universal Licensing System and Coast Guard Vessel Documentation Center.

Last reported at 2014-Apr-23 08:33 UTC. Time now 2014-Apr-23 09:13 UTC.
Position N 37°55' W 122°25'.

Length 24 m; draft 4.9 m.

Type: Tug. MMSI: 367305920.

NotesDate/timePositionNaut miles runAvg speedWind from/ knotsBaromVisibWave heightAir tempDewpointWater temp
2014-Apr-23 08:33N 37°55' W 122°25'0 0.0
2014-Apr-23 07:33N 37°55' W 122°25'0 0.0
2014-Apr-23 06:33N 37°55' W 122°25'0 0.4
2014-Apr-23 05:15N 37°56' W 122°25'0 0.5
2014-Apr-23 04:33N 37°55' W 122°25'5 4.8
2014-Apr-23 03:34N 37°51' W 122°23'4 3.5
2014-Apr-23 02:33N 37°49' W 122°19'0 0.0
2014-Apr-23 01:34N 37°49' W 122°19'0 0.0
2014-Apr-23 00:33N 37°49' W 122°19'0 0.0
2014-Apr-22 23:33N 37°49' W 122°19'0 0.0
2014-Apr-22 22:33N 37°49' W 122°19'0 0.0
2014-Apr-22 21:33N 37°49' W 122°19'0 0.0
2014-Apr-22 20:34N 37°49' W 122°19'0 0.0
2014-Apr-22 19:34N 37°49' W 122°19'0 0.0
2014-Apr-22 18:34N 37°49' W 122°19'0 0.0
2014-Apr-22 17:34N 37°49' W 122°19'0 0.0
2014-Apr-22 16:34N 37°49' W 122°19'1 1.3
2014-Apr-22 15:34N 37°49' W 122°20'6 5.9
2014-Apr-22 14:34N 37°54' W 122°23'1 0.9
2014-Apr-22 13:33N 37°55' W 122°22'0 0.0
2014-Apr-22 12:34N 37°55' W 122°22'0 0.0
2014-Apr-22 11:33N 37°55' W 122°22'0 0.0
2014-Apr-22 10:33N 37°55' W 122°22'2 2.3
2014-Apr-22 09:33N 37°55' W 122°25'3 3.2
2014-Apr-22 08:33N 37°52' W 122°25'4 4.2
2014-Apr-22 07:34N 37°49' W 122°21'2 1.9
2014-Apr-22 06:34N 37°49' W 122°19'0 0.0
2014-Apr-22 05:33N 37°49' W 122°19'0 0.0
2014-Apr-22 04:33N 37°49' W 122°19'0 0.0
2014-Apr-22 03:34N 37°49' W 122°19'0 0.0
2014-Apr-22 02:34N 37°49' W 122°19'5 4.9
2014-Apr-22 01:33N 37°52' W 122°24'8 8.5
2014-Apr-22 00:33N 38°01' W 122°24'7 7.0
2014-Apr-21 23:34N 38°03' W 122°16'2 1.6
2014-Apr-21 22:32N 38°03' W 122°18'10 0.5
2014-Apr-21 02:25N 38°03' W 122°05'2 0.0
2014-Apr-19 07:21N 38°03' W 122°08'12 1.9
2014-Apr-19 01:18N 38°03' W 121°53'3 0.9
2014-Apr-18 22:31N 38°02' W 121°50'5 4.9
2014-Apr-18 21:30N 38°03' W 121°56'9 0.9
2014-Apr-18 11:09N 38°02' W 122°08'0 0.1
2014-Apr-18 06:30N 38°03' W 122°08'0 0.0
2014-Apr-17 11:30N 38°03' W 122°08'0 0.0
2014-Apr-17 05:29N 38°03' W 122°08'0 0.0
2014-Apr-17 03:25N 38°03' W 122°08'0 0.0
2014-Apr-17 02:33N 38°03' W 122°08'5 5.3
2014-Apr-17 01:33N 38°04' W 122°15'9 8.7
2014-Apr-17 00:33N 37°60' W 122°25'6 5.8
2014-Apr-16 23:34N 37°55' W 122°22'0 0.2
2014-Apr-16 22:33N 37°54' W 122°22'5 4.6
2014-Apr-16 21:32N 37°58' W 122°26'2 2.1
2014-Apr-16 20:33N 37°56' W 122°25'0 0.4
2014-Apr-16 19:33N 37°56' W 122°26'2 1.5
2014-Apr-16 18:27N 37°58' W 122°26'1 0.9
2014-Apr-16 17:30N 37°57' W 122°26'1 1.4
2014-Apr-16 16:33N 37°56' W 122°25'0 0.1
2014-Apr-16 15:33N 37°56' W 122°25'7 6.6
2014-Apr-16 14:34N 37°49' W 122°21'2 1.6
2014-Apr-16 13:34N 37°49' W 122°20'3 2.5
2014-Apr-16 12:33N 37°49' W 122°23'3 3.3
2014-Apr-16 11:33N 37°49' W 122°19'0 0.0
2014-Apr-16 10:33N 37°49' W 122°19'0 0.0
2014-Apr-16 09:33N 37°49' W 122°19'0 0.0
2014-Apr-16 08:34N 37°49' W 122°19'0 0.0
2014-Apr-16 07:33N 37°49' W 122°19'0 0.0
2014-Apr-16 06:33N 37°49' W 122°19'0 0.0
2014-Apr-16 05:34N 37°49' W 122°19'0 0.0
2014-Apr-16 04:33N 37°49' W 122°19'0 0.0
2014-Apr-16 03:34N 37°49' W 122°19'0 0.0
2014-Apr-16 02:34N 37°49' W 122°19'0 0.0
2014-Apr-16 01:33N 37°49' W 122°19'1 1.3
2014-Apr-16 00:33N 37°49' W 122°20'2 2.4
2014-Apr-15 23:33N 37°48' W 122°17'4 3.9
2014-Apr-15 22:33N 37°48' W 122°22'3 2.6
2014-Apr-15 21:33N 37°49' W 122°19'0 0.3
2014-Apr-15 20:34N 37°49' W 122°20'1 1.0
2014-Apr-15 19:33N 37°48' W 122°21'2 1.9
2014-Apr-15 18:33N 37°49' W 122°19'0 0.0
2014-Apr-15 17:33N 37°49' W 122°19'0 0.0
2014-Apr-15 16:33N 37°49' W 122°19'0 0.0
2014-Apr-15 15:34N 37°49' W 122°19'0 0.0
2014-Apr-15 14:34N 37°49' W 122°19'0 0.0
2014-Apr-15 12:34N 37°49' W 122°19'0 0.0
2014-Apr-15 11:34N 37°49' W 122°19'0 0.0
2014-Apr-15 10:34N 37°49' W 122°19'0 0.0
2014-Apr-15 09:34N 37°49' W 122°19'0 0.4
2014-Apr-15 08:34N 37°49' W 122°19'8 8.2
2014-Apr-15 07:34N 37°49' W 122°29'3 3.4
2014-Apr-15 06:34N 37°51' W 122°26'9 9.1
2014-Apr-15 05:34N 37°60' W 122°25'16 7.9
2014-Apr-15 03:34N 38°03' W 122°05'4 0.2
2014-Apr-14 08:33N 38°03' W 122°11'4 2.0
2014-Apr-14 06:33N 38°04' W 122°16'15 1.8
2014-Apr-13 22:33N 37°49' W 122°19'0 0.0
2014-Apr-13 21:33N 37°49' W 122°19'0 0.0
2014-Apr-13 20:34N 37°49' W 122°19'0 0.0
2014-Apr-13 19:33N 37°49' W 122°19'0 0.0
2014-Apr-13 18:33N 37°49' W 122°19'0 0.0
2014-Apr-13 17:34N 37°49' W 122°19'0 0.0
2014-Apr-13 16:33N 37°49' W 122°19'0 0.0
2014-Apr-13 15:33N 37°49' W 122°19'1 1.3
2014-Apr-13 14:33N 37°49' W 122°20'1 1.1
2014-Apr-13 13:34N 37°48' W 122°19'1 1.4
2014-Apr-13 12:34N 37°48' W 122°18'4 3.6
2014-Apr-13 11:34N 37°48' W 122°22'1 1.2
2014-Apr-13 10:33N 37°48' W 122°21'0 0.0
2014-Apr-13 09:33N 37°48' W 122°21'  

Dump ship's entire track history

sailing weather and tide predictions

Sandra Hugh — WDD9019 — position and weather